sensor_id;sensor_type;location;lat;lon;timestamp;P1;durP1;ratioP1;P2;durP2;ratioP2
76599;SDS011;65489;52.048;6.090;2023-10-08T00:00:43;4.97;;;1.63;;
76599;SDS011;65489;52.048;6.090;2023-10-08T00:03:14;2.53;;;1.58;;
76599;SDS011;65489;52.048;6.090;2023-10-08T00:05:40;3.03;;;1.55;;
76599;SDS011;65489;52.048;6.090;2023-10-08T00:08:07;3.60;;;1.60;;
76599;SDS011;65489;52.048;6.090;2023-10-08T00:10:39;3.72;;;1.60;;
76599;SDS011;65489;52.048;6.090;2023-10-08T00:13:07;3.88;;;1.80;;
76599;SDS011;65489;52.048;6.090;2023-10-08T00:15:35;3.67;;;1.60;;
76599;SDS011;65489;52.048;6.090;2023-10-08T00:18:04;2.38;;;1.60;;
76599;SDS011;65489;52.048;6.090;2023-10-08T00:20:36;3.97;;;1.63;;
76599;SDS011;65489;52.048;6.090;2023-10-08T00:23:11;2.55;;;1.50;;
76599;SDS011;65489;52.048;6.090;2023-10-08T00:25:37;3.17;;;1.45;;
76599;SDS011;65489;52.048;6.090;2023-10-08T00:28:06;2.07;;;1.40;;
76599;SDS011;65489;52.048;6.090;2023-10-08T00:30:41;2.72;;;1.65;;
76599;SDS011;65489;52.048;6.090;2023-10-08T00:33:10;5.03;;;1.90;;
76599;SDS011;65489;52.048;6.090;2023-10-08T00:35:39;3.30;;;1.70;;
76599;SDS011;65489;52.048;6.090;2023-10-08T00:38:06;2.90;;;1.60;;
76599;SDS011;65489;52.048;6.090;2023-10-08T00:40:38;2.97;;;1.58;;
76599;SDS011;65489;52.048;6.090;2023-10-08T00:43:05;2.65;;;1.50;;
76599;SDS011;65489;52.048;6.090;2023-10-08T00:45:35;4.00;;;1.80;;
76599;SDS011;65489;52.048;6.090;2023-10-08T00:48:12;2.75;;;1.60;;
76599;SDS011;65489;52.048;6.090;2023-10-08T00:50:42;3.42;;;1.45;;
76599;SDS011;65489;52.048;6.090;2023-10-08T00:53:09;4.20;;;1.60;;
76599;SDS011;65489;52.048;6.090;2023-10-08T00:55:46;5.10;;;1.63;;
76599;SDS011;65489;52.048;6.090;2023-10-08T00:58:19;3.30;;;1.55;;
76599;SDS011;65489;52.048;6.090;2023-10-08T01:00:54;3.13;;;1.58;;
76599;SDS011;65489;52.048;6.090;2023-10-08T01:03:26;2.80;;;1.75;;
76599;SDS011;65489;52.048;6.090;2023-10-08T01:05:53;3.13;;;1.55;;
76599;SDS011;65489;52.048;6.090;2023-10-08T01:08:22;3.75;;;1.42;;
76599;SDS011;65489;52.048;6.090;2023-10-08T01:10:59;3.85;;;1.60;;
76599;SDS011;65489;52.048;6.090;2023-10-08T01:13:40;2.85;;;1.60;;
76599;SDS011;65489;52.048;6.090;2023-10-08T01:16:11;4.13;;;1.52;;
76599;SDS011;65489;52.048;6.090;2023-10-08T01:18:36;3.05;;;1.52;;
76599;SDS011;65489;52.048;6.090;2023-10-08T01:21:07;3.30;;;1.40;;
76599;SDS011;65489;52.048;6.090;2023-10-08T01:23:33;3.25;;;1.40;;
76599;SDS011;65489;52.048;6.090;2023-10-08T01:25:59;3.40;;;1.50;;
76599;SDS011;65489;52.048;6.090;2023-10-08T01:28:45;2.90;;;1.33;;
76599;SDS011;65489;52.048;6.090;2023-10-08T01:31:10;2.55;;;1.42;;
76599;SDS011;65489;52.048;6.090;2023-10-08T01:33:37;3.13;;;1.27;;
76599;SDS011;65489;52.048;6.090;2023-10-08T01:36:04;2.72;;;1.50;;
76599;SDS011;65489;52.048;6.090;2023-10-08T01:38:30;1.90;;;1.20;;
76599;SDS011;65489;52.048;6.090;2023-10-08T01:40:57;2.15;;;1.05;;
76599;SDS011;65489;52.048;6.090;2023-10-08T01:43:28;2.90;;;1.50;;
76599;SDS011;65489;52.048;6.090;2023-10-08T01:45:53;2.78;;;1.50;;
76599;SDS011;65489;52.048;6.090;2023-10-08T01:48:19;4.00;;;1.25;;
76599;SDS011;65489;52.048;6.090;2023-10-08T01:50:53;3.13;;;1.30;;
76599;SDS011;65489;52.048;6.090;2023-10-08T01:55:45;3.60;;;1.17;;
76599;SDS011;65489;52.048;6.090;2023-10-08T01:58:15;2.60;;;1.48;;
76599;SDS011;65489;52.048;6.090;2023-10-08T02:00:47;2.17;;;1.30;;
76599;SDS011;65489;52.048;6.090;2023-10-08T02:03:14;2.78;;;1.50;;
76599;SDS011;65489;52.048;6.090;2023-10-08T02:05:44;2.50;;;1.10;;
76599;SDS011;65489;52.048;6.090;2023-10-08T02:08:11;3.08;;;1.58;;
76599;SDS011;65489;52.048;6.090;2023-10-08T02:10:41;4.13;;;1.40;;
76599;SDS011;65489;52.048;6.090;2023-10-08T02:13:08;1.30;;;0.95;;
76599;SDS011;65489;52.048;6.090;2023-10-08T02:15:35;2.92;;;1.38;;
76599;SDS011;65489;52.048;6.090;2023-10-08T02:18:02;2.38;;;1.25;;
76599;SDS011;65489;52.048;6.090;2023-10-08T02:20:28;3.88;;;1.77;;
76599;SDS011;65489;52.048;6.090;2023-10-08T02:22:54;4.82;;;1.40;;
76599;SDS011;65489;52.048;6.090;2023-10-08T02:25:20;2.70;;;1.58;;
76599;SDS011;65489;52.048;6.090;2023-10-08T02:27:45;3.15;;;1.45;;
76599;SDS011;65489;52.048;6.090;2023-10-08T02:30:12;3.13;;;1.40;;
76599;SDS011;65489;52.048;6.090;2023-10-08T02:32:38;2.35;;;1.30;;
76599;SDS011;65489;52.048;6.090;2023-10-08T02:35:08;2.40;;;1.30;;
76599;SDS011;65489;52.048;6.090;2023-10-08T02:37:37;2.42;;;1.55;;
76599;SDS011;65489;52.048;6.090;2023-10-08T02:40:08;2.85;;;1.23;;
76599;SDS011;65489;52.048;6.090;2023-10-08T02:42:40;2.72;;;1.40;;
76599;SDS011;65489;52.048;6.090;2023-10-08T02:45:07;2.95;;;1.20;;
76599;SDS011;65489;52.048;6.090;2023-10-08T02:47:39;2.03;;;1.23;;
76599;SDS011;65489;52.048;6.090;2023-10-08T02:50:06;3.20;;;1.50;;
76599;SDS011;65489;52.048;6.090;2023-10-08T02:52:33;3.03;;;1.45;;
76599;SDS011;65489;52.048;6.090;2023-10-08T02:54:59;2.05;;;1.15;;
76599;SDS011;65489;52.048;6.090;2023-10-08T02:57:25;1.95;;;1.20;;
76599;SDS011;65489;52.048;6.090;2023-10-08T03:02:20;2.22;;;1.27;;
76599;SDS011;65489;52.048;6.090;2023-10-08T03:04:47;3.72;;;1.33;;
76599;SDS011;65489;52.048;6.090;2023-10-08T03:09:49;2.42;;;1.30;;
76599;SDS011;65489;52.048;6.090;2023-10-08T03:12:18;2.22;;;1.17;;
76599;SDS011;65489;52.048;6.090;2023-10-08T03:14:44;3.15;;;1.23;;
76599;SDS011;65489;52.048;6.090;2023-10-08T03:17:29;3.10;;;1.27;;
76599;SDS011;65489;52.048;6.090;2023-10-08T03:19:55;1.75;;;1.10;;
76599;SDS011;65489;52.048;6.090;2023-10-08T03:22:43;2.72;;;1.15;;
76599;SDS011;65489;52.048;6.090;2023-10-08T03:25:11;2.42;;;1.30;;
76599;SDS011;65489;52.048;6.090;2023-10-08T03:27:42;2.20;;;1.25;;
76599;SDS011;65489;52.048;6.090;2023-10-08T03:30:08;3.45;;;1.50;;
76599;SDS011;65489;52.048;6.090;2023-10-08T03:32:42;2.53;;;1.30;;
76599;SDS011;65489;52.048;6.090;2023-10-08T03:35:16;2.00;;;1.20;;
76599;SDS011;65489;52.048;6.090;2023-10-08T03:37:42;2.05;;;1.33;;
76599;SDS011;65489;52.048;6.090;2023-10-08T03:40:11;2.55;;;1.27;;
76599;SDS011;65489;52.048;6.090;2023-10-08T03:43:08;2.70;;;1.30;;
76599;SDS011;65489;52.048;6.090;2023-10-08T03:45:57;2.92;;;1.17;;
76599;SDS011;65489;52.048;6.090;2023-10-08T03:48:31;2.20;;;1.13;;
76599;SDS011;65489;52.048;6.090;2023-10-08T03:51:04;2.75;;;1.30;;
76599;SDS011;65489;52.048;6.090;2023-10-08T03:53:36;2.10;;;1.23;;
76599;SDS011;65489;52.048;6.090;2023-10-08T03:56:14;3.20;;;1.45;;
76599;SDS011;65489;52.048;6.090;2023-10-08T03:58:39;4.25;;;1.30;;
76599;SDS011;65489;52.048;6.090;2023-10-08T04:01:11;3.10;;;1.48;;
76599;SDS011;65489;52.048;6.090;2023-10-08T04:03:43;2.28;;;1.10;;
76599;SDS011;65489;52.048;6.090;2023-10-08T04:06:21;1.92;;;1.13;;
76599;SDS011;65489;52.048;6.090;2023-10-08T04:09:16;2.30;;;1.23;;
76599;SDS011;65489;52.048;6.090;2023-10-08T04:11:43;2.20;;;1.20;;
76599;SDS011;65489;52.048;6.090;2023-10-08T04:14:12;1.83;;;1.05;;
76599;SDS011;65489;52.048;6.090;2023-10-08T04:16:41;1.92;;;0.98;;
76599;SDS011;65489;52.048;6.090;2023-10-08T04:19:07;3.20;;;1.45;;
76599;SDS011;65489;52.048;6.090;2023-10-08T04:21:33;2.78;;;1.20;;
76599;SDS011;65489;52.048;6.090;2023-10-08T04:23:59;2.17;;;1.00;;
76599;SDS011;65489;52.048;6.090;2023-10-08T04:26:35;2.08;;;1.20;;
76599;SDS011;65489;52.048;6.090;2023-10-08T04:29:01;2.53;;;1.30;;
76599;SDS011;65489;52.048;6.090;2023-10-08T04:31:27;1.60;;;1.10;;
76599;SDS011;65489;52.048;6.090;2023-10-08T04:34:01;1.77;;;0.90;;
76599;SDS011;65489;52.048;6.090;2023-10-08T04:36:32;2.53;;;1.20;;
76599;SDS011;65489;52.048;6.090;2023-10-08T04:38:57;2.70;;;1.17;;
76599;SDS011;65489;52.048;6.090;2023-10-08T04:41:29;1.25;;;0.90;;
76599;SDS011;65489;52.048;6.090;2023-10-08T04:43:54;2.22;;;1.08;;
76599;SDS011;65489;52.048;6.090;2023-10-08T04:46:21;1.70;;;1.20;;
76599;SDS011;65489;52.048;6.090;2023-10-08T04:49:15;1.70;;;1.10;;
76599;SDS011;65489;52.048;6.090;2023-10-08T04:51:53;2.00;;;0.93;;
76599;SDS011;65489;52.048;6.090;2023-10-08T04:56:48;1.80;;;0.93;;
76599;SDS011;65489;52.048;6.090;2023-10-08T04:59:14;1.05;;;0.80;;
76599;SDS011;65489;52.048;6.090;2023-10-08T05:01:39;1.67;;;1.02;;
76599;SDS011;65489;52.048;6.090;2023-10-08T05:04:27;1.70;;;0.95;;
76599;SDS011;65489;52.048;6.090;2023-10-08T05:06:58;1.40;;;0.82;;
76599;SDS011;65489;52.048;6.090;2023-10-08T05:09:42;1.65;;;0.93;;
76599;SDS011;65489;52.048;6.090;2023-10-08T05:12:17;1.60;;;1.05;;
76599;SDS011;65489;52.048;6.090;2023-10-08T05:14:57;1.52;;;0.90;;
76599;SDS011;65489;52.048;6.090;2023-10-08T05:17:42;1.85;;;1.00;;
76599;SDS011;65489;52.048;6.090;2023-10-08T05:20:17;1.67;;;0.88;;
76599;SDS011;65489;52.048;6.090;2023-10-08T05:23:05;2.72;;;0.98;;
76599;SDS011;65489;52.048;6.090;2023-10-08T05:26:07;1.88;;;0.82;;
76599;SDS011;65489;52.048;6.090;2023-10-08T05:28:32;3.17;;;0.93;;
76599;SDS011;65489;52.048;6.090;2023-10-08T05:31:07;1.60;;;1.02;;
76599;SDS011;65489;52.048;6.090;2023-10-08T05:33:46;1.45;;;0.90;;
76599;SDS011;65489;52.048;6.090;2023-10-08T05:36:12;1.75;;;0.90;;
76599;SDS011;65489;52.048;6.090;2023-10-08T05:38:44;1.15;;;0.70;;
76599;SDS011;65489;52.048;6.090;2023-10-08T05:41:26;2.03;;;1.13;;
76599;SDS011;65489;52.048;6.090;2023-10-08T05:44:16;2.00;;;0.93;;
76599;SDS011;65489;52.048;6.090;2023-10-08T05:46:45;2.22;;;0.95;;
76599;SDS011;65489;52.048;6.090;2023-10-08T05:49:20;1.67;;;0.90;;
76599;SDS011;65489;52.048;6.090;2023-10-08T05:51:55;1.23;;;0.80;;
76599;SDS011;65489;52.048;6.090;2023-10-08T05:54:25;2.33;;;0.90;;
76599;SDS011;65489;52.048;6.090;2023-10-08T05:57:06;1.40;;;0.65;;
76599;SDS011;65489;52.048;6.090;2023-10-08T06:02:17;1.52;;;0.90;;
76599;SDS011;65489;52.048;6.090;2023-10-08T06:04:53;2.17;;;0.80;;
76599;SDS011;65489;52.048;6.090;2023-10-08T06:07:49;1.50;;;0.77;;
76599;SDS011;65489;52.048;6.090;2023-10-08T06:13:05;1.35;;;0.73;;
76599;SDS011;65489;52.048;6.090;2023-10-08T06:15:50;1.25;;;0.70;;
76599;SDS011;65489;52.048;6.090;2023-10-08T06:18:17;1.20;;;0.80;;
76599;SDS011;65489;52.048;6.090;2023-10-08T06:20:44;1.73;;;0.70;;
76599;SDS011;65489;52.048;6.090;2023-10-08T06:23:14;0.98;;;0.70;;
76599;SDS011;65489;52.048;6.090;2023-10-08T06:25:44;1.30;;;0.73;;
76599;SDS011;65489;52.048;6.090;2023-10-08T06:28:17;1.92;;;1.05;;
76599;SDS011;65489;52.048;6.090;2023-10-08T06:30:49;1.02;;;0.73;;
76599;SDS011;65489;52.048;6.090;2023-10-08T06:33:18;1.42;;;0.75;;
76599;SDS011;65489;52.048;6.090;2023-10-08T06:35:55;1.95;;;0.60;;
76599;SDS011;65489;52.048;6.090;2023-10-08T06:38:37;1.40;;;0.90;;
76599;SDS011;65489;52.048;6.090;2023-10-08T06:41:06;2.20;;;0.82;;
76599;SDS011;65489;52.048;6.090;2023-10-08T06:43:47;1.10;;;0.63;;
76599;SDS011;65489;52.048;6.090;2023-10-08T06:46:14;1.40;;;0.80;;
76599;SDS011;65489;52.048;6.090;2023-10-08T06:48:47;1.92;;;0.70;;
76599;SDS011;65489;52.048;6.090;2023-10-08T06:51:14;1.42;;;0.80;;
76599;SDS011;65489;52.048;6.090;2023-10-08T06:53:43;0.93;;;0.70;;
76599;SDS011;65489;52.048;6.090;2023-10-08T06:56:10;1.00;;;0.60;;
76599;SDS011;65489;52.048;6.090;2023-10-08T06:58:42;1.08;;;0.77;;
76599;SDS011;65489;52.048;6.090;2023-10-08T07:01:17;1.13;;;0.77;;
76599;SDS011;65489;52.048;6.090;2023-10-08T07:03:56;1.20;;;0.75;;
76599;SDS011;65489;52.048;6.090;2023-10-08T07:06:28;1.05;;;0.60;;
76599;SDS011;65489;52.048;6.090;2023-10-08T07:08:59;2.15;;;0.70;;
76599;SDS011;65489;52.048;6.090;2023-10-08T07:11:26;1.08;;;0.63;;
76599;SDS011;65489;52.048;6.090;2023-10-08T07:13:54;1.27;;;0.68;;
76599;SDS011;65489;52.048;6.090;2023-10-08T07:16:21;2.13;;;0.70;;
76599;SDS011;65489;52.048;6.090;2023-10-08T07:18:46;1.05;;;0.60;;
76599;SDS011;65489;52.048;6.090;2023-10-08T07:21:18;0.90;;;0.70;;
76599;SDS011;65489;52.048;6.090;2023-10-08T07:23:49;1.10;;;0.70;;
76599;SDS011;65489;52.048;6.090;2023-10-08T07:26:25;0.90;;;0.65;;
76599;SDS011;65489;52.048;6.090;2023-10-08T07:28:51;1.30;;;0.60;;
76599;SDS011;65489;52.048;6.090;2023-10-08T07:31:21;0.80;;;0.50;;
76599;SDS011;65489;52.048;6.090;2023-10-08T07:33:51;1.25;;;0.63;;
76599;SDS011;65489;52.048;6.090;2023-10-08T07:36:25;1.20;;;0.60;;
76599;SDS011;65489;52.048;6.090;2023-10-08T07:38:52;1.33;;;0.75;;
76599;SDS011;65489;52.048;6.090;2023-10-08T07:41:18;1.27;;;0.55;;
76599;SDS011;65489;52.048;6.090;2023-10-08T07:43:45;0.93;;;0.52;;
76599;SDS011;65489;52.048;6.090;2023-10-08T07:46:18;1.00;;;0.50;;
76599;SDS011;65489;52.048;6.090;2023-10-08T07:48:43;1.75;;;0.73;;
76599;SDS011;65489;52.048;6.090;2023-10-08T07:51:09;0.60;;;0.50;;
76599;SDS011;65489;52.048;6.090;2023-10-08T07:53:34;0.90;;;0.60;;
76599;SDS011;65489;52.048;6.090;2023-10-08T07:56:03;0.70;;;0.57;;
76599;SDS011;65489;52.048;6.090;2023-10-08T08:01:02;0.73;;;0.52;;
76599;SDS011;65489;52.048;6.090;2023-10-08T08:03:31;1.02;;;0.55;;
76599;SDS011;65489;52.048;6.090;2023-10-08T08:06:04;1.23;;;0.60;;
76599;SDS011;65489;52.048;6.090;2023-10-08T08:08:31;1.52;;;0.60;;
76599;SDS011;65489;52.048;6.090;2023-10-08T08:10:58;1.20;;;0.70;;
76599;SDS011;65489;52.048;6.090;2023-10-08T08:13:39;1.67;;;0.77;;
76599;SDS011;65489;52.048;6.090;2023-10-08T08:16:07;1.92;;;0.90;;
76599;SDS011;65489;52.048;6.090;2023-10-08T08:21:11;2.70;;;1.13;;
76599;SDS011;65489;52.048;6.090;2023-10-08T08:23:44;2.97;;;1.10;;
76599;SDS011;65489;52.048;6.090;2023-10-08T08:26:17;3.58;;;1.15;;
76599;SDS011;65489;52.048;6.090;2023-10-08T08:28:57;3.63;;;1.27;;
76599;SDS011;65489;52.048;6.090;2023-10-08T08:31:30;5.47;;;1.40;;
76599;SDS011;65489;52.048;6.090;2023-10-08T08:34:00;4.72;;;1.38;;
76599;SDS011;65489;52.048;6.090;2023-10-08T08:36:35;2.97;;;1.02;;
76599;SDS011;65489;52.048;6.090;2023-10-08T08:41:30;4.85;;;1.33;;
76599;SDS011;65489;52.048;6.090;2023-10-08T08:43:55;4.13;;;1.40;;
76599;SDS011;65489;52.048;6.090;2023-10-08T08:46:31;4.75;;;1.73;;
76599;SDS011;65489;52.048;6.090;2023-10-08T08:48:59;3.40;;;1.27;;
76599;SDS011;65489;52.048;6.090;2023-10-08T08:51:33;4.97;;;1.67;;
76599;SDS011;65489;52.048;6.090;2023-10-08T08:54:00;3.72;;;1.50;;
76599;SDS011;65489;52.048;6.090;2023-10-08T08:56:31;3.17;;;1.60;;
76599;SDS011;65489;52.048;6.090;2023-10-08T08:58:58;5.55;;;1.60;;
76599;SDS011;65489;52.048;6.090;2023-10-08T09:01:25;4.35;;;1.95;;
76599;SDS011;65489;52.048;6.090;2023-10-08T09:03:50;5.15;;;1.45;;
76599;SDS011;65489;52.048;6.090;2023-10-08T09:06:15;5.18;;;1.90;;
76599;SDS011;65489;52.048;6.090;2023-10-08T09:08:41;7.13;;;1.70;;
76599;SDS011;65489;52.048;6.090;2023-10-08T09:11:07;4.22;;;1.55;;
76599;SDS011;65489;52.048;6.090;2023-10-08T09:13:33;5.70;;;1.73;;
76599;SDS011;65489;52.048;6.090;2023-10-08T09:16:13;4.85;;;1.60;;
76599;SDS011;65489;52.048;6.090;2023-10-08T09:18:43;3.67;;;1.52;;
76599;SDS011;65489;52.048;6.090;2023-10-08T09:21:11;4.57;;;1.80;;
76599;SDS011;65489;52.048;6.090;2023-10-08T09:23:49;5.78;;;1.60;;
76599;SDS011;65489;52.048;6.090;2023-10-08T09:26:21;7.32;;;1.88;;
76599;SDS011;65489;52.048;6.090;2023-10-08T09:28:50;3.20;;;1.38;;
76599;SDS011;65489;52.048;6.090;2023-10-08T09:31:17;3.45;;;1.55;;
76599;SDS011;65489;52.048;6.090;2023-10-08T09:33:43;5.18;;;1.77;;
76599;SDS011;65489;52.048;6.090;2023-10-08T09:36:18;4.05;;;1.40;;
76599;SDS011;65489;52.048;6.090;2023-10-08T09:38:45;3.42;;;1.52;;
76599;SDS011;65489;52.048;6.090;2023-10-08T09:41:13;4.10;;;1.50;;
76599;SDS011;65489;52.048;6.090;2023-10-08T09:43:40;2.58;;;1.23;;
76599;SDS011;65489;52.048;6.090;2023-10-08T09:46:18;3.47;;;1.65;;
76599;SDS011;65489;52.048;6.090;2023-10-08T09:48:48;3.40;;;1.27;;
76599;SDS011;65489;52.048;6.090;2023-10-08T09:51:14;3.55;;;1.50;;
76599;SDS011;65489;52.048;6.090;2023-10-08T09:53:49;4.15;;;1.80;;
76599;SDS011;65489;52.048;6.090;2023-10-08T09:56:16;4.13;;;1.40;;
76599;SDS011;65489;52.048;6.090;2023-10-08T09:58:45;3.13;;;1.13;;
76599;SDS011;65489;52.048;6.090;2023-10-08T10:03:39;3.25;;;1.05;;
76599;SDS011;65489;52.048;6.090;2023-10-08T10:06:11;2.97;;;1.33;;
76599;SDS011;65489;52.048;6.090;2023-10-08T10:08:44;4.18;;;1.40;;
76599;SDS011;65489;52.048;6.090;2023-10-08T10:11:10;3.22;;;1.08;;
76599;SDS011;65489;52.048;6.090;2023-10-08T10:13:42;3.47;;;1.30;;
76599;SDS011;65489;52.048;6.090;2023-10-08T10:16:13;2.65;;;1.10;;
76599;SDS011;65489;52.048;6.090;2023-10-08T10:18:43;2.67;;;1.17;;
76599;SDS011;65489;52.048;6.090;2023-10-08T10:23:41;4.38;;;1.20;;
76599;SDS011;65489;52.048;6.090;2023-10-08T10:31:49;2.33;;;1.20;;
76599;SDS011;65489;52.048;6.090;2023-10-08T10:34:23;3.50;;;1.08;;
76599;SDS011;65489;52.048;6.090;2023-10-08T10:36:52;2.75;;;1.13;;
76599;SDS011;65489;52.048;6.090;2023-10-08T10:39:34;2.20;;;1.25;;
76599;SDS011;65489;52.048;6.090;2023-10-08T10:42:05;1.40;;;0.93;;
76599;SDS011;65489;52.048;6.090;2023-10-08T10:44:45;2.47;;;1.00;;
76599;SDS011;65489;52.048;6.090;2023-10-08T10:47:14;3.03;;;0.90;;
76599;SDS011;65489;52.048;6.090;2023-10-08T10:49:40;2.58;;;1.00;;
76599;SDS011;65489;52.048;6.090;2023-10-08T10:52:24;1.65;;;1.00;;
76599;SDS011;65489;52.048;6.090;2023-10-08T10:54:58;2.42;;;1.10;;
76599;SDS011;65489;52.048;6.090;2023-10-08T10:57:43;1.85;;;0.82;;
76599;SDS011;65489;52.048;6.090;2023-10-08T11:00:21;1.80;;;0.90;;
76599;SDS011;65489;52.048;6.090;2023-10-08T11:03:13;2.15;;;1.00;;
76599;SDS011;65489;52.048;6.090;2023-10-08T11:05:42;1.83;;;0.90;;
76599;SDS011;65489;52.048;6.090;2023-10-08T11:08:13;2.90;;;1.20;;
76599;SDS011;65489;52.048;6.090;2023-10-08T11:10:41;1.88;;;1.00;;
76599;SDS011;65489;52.048;6.090;2023-10-08T11:13:13;2.30;;;1.10;;
76599;SDS011;65489;52.048;6.090;2023-10-08T11:15:45;1.77;;;0.83;;
76599;SDS011;65489;52.048;6.090;2023-10-08T11:18:18;2.17;;;0.90;;
76599;SDS011;65489;52.048;6.090;2023-10-08T11:20:44;2.17;;;0.90;;
76599;SDS011;65489;52.048;6.090;2023-10-08T11:23:29;1.67;;;0.90;;
76599;SDS011;65489;52.048;6.090;2023-10-08T11:25:55;1.55;;;0.70;;
76599;SDS011;65489;52.048;6.090;2023-10-08T11:28:25;1.85;;;0.73;;
76599;SDS011;65489;52.048;6.090;2023-10-08T11:30:52;2.20;;;1.00;;
76599;SDS011;65489;52.048;6.090;2023-10-08T11:33:18;1.95;;;0.75;;
76599;SDS011;65489;52.048;6.090;2023-10-08T11:36:03;1.75;;;0.90;;
76599;SDS011;65489;52.048;6.090;2023-10-08T11:38:41;2.03;;;0.98;;
76599;SDS011;65489;52.048;6.090;2023-10-08T11:41:25;1.55;;;0.90;;
76599;SDS011;65489;52.048;6.090;2023-10-08T11:43:54;1.30;;;0.77;;
76599;SDS011;65489;52.048;6.090;2023-10-08T11:46:27;1.08;;;0.80;;
76599;SDS011;65489;52.048;6.090;2023-10-08T11:49:03;1.10;;;0.50;;
76599;SDS011;65489;52.048;6.090;2023-10-08T11:51:33;1.88;;;0.93;;
76599;SDS011;65489;52.048;6.090;2023-10-08T11:54:00;1.17;;;0.70;;
76599;SDS011;65489;52.048;6.090;2023-10-08T11:56:31;2.10;;;0.90;;
76599;SDS011;65489;52.048;6.090;2023-10-08T11:58:58;0.90;;;0.70;;
76599;SDS011;65489;52.048;6.090;2023-10-08T12:01:26;1.30;;;0.80;;
76599;SDS011;65489;52.048;6.090;2023-10-08T12:03:52;1.55;;;0.70;;
76599;SDS011;65489;52.048;6.090;2023-10-08T12:06:22;3.22;;;0.80;;
76599;SDS011;65489;52.048;6.090;2023-10-08T12:08:49;1.50;;;0.63;;
76599;SDS011;65489;52.048;6.090;2023-10-08T12:11:18;2.25;;;0.70;;
76599;SDS011;65489;52.048;6.090;2023-10-08T12:13:44;2.25;;;0.75;;
76599;SDS011;65489;52.048;6.090;2023-10-08T12:16:13;0.95;;;0.63;;
76599;SDS011;65489;52.048;6.090;2023-10-08T12:18:48;1.60;;;0.70;;
76599;SDS011;65489;52.048;6.090;2023-10-08T12:21:17;1.88;;;0.57;;
76599;SDS011;65489;52.048;6.090;2023-10-08T12:23:43;1.17;;;0.70;;
76599;SDS011;65489;52.048;6.090;2023-10-08T12:26:10;1.80;;;0.75;;
76599;SDS011;65489;52.048;6.090;2023-10-08T12:28:40;2.30;;;0.60;;
76599;SDS011;65489;52.048;6.090;2023-10-08T12:31:07;3.92;;;0.85;;
76599;SDS011;65489;52.048;6.090;2023-10-08T12:33:35;1.48;;;0.60;;
76599;SDS011;65489;52.048;6.090;2023-10-08T12:36:00;3.25;;;0.63;;
76599;SDS011;65489;52.048;6.090;2023-10-08T12:38:36;1.35;;;0.70;;
76599;SDS011;65489;52.048;6.090;2023-10-08T12:41:02;1.13;;;0.50;;
76599;SDS011;65489;52.048;6.090;2023-10-08T12:43:36;1.15;;;0.70;;
76599;SDS011;65489;52.048;6.090;2023-10-08T12:46:04;1.02;;;0.63;;
76599;SDS011;65489;52.048;6.090;2023-10-08T12:48:29;1.23;;;0.50;;
76599;SDS011;65489;52.048;6.090;2023-10-08T12:50:55;1.77;;;0.60;;
76599;SDS011;65489;52.048;6.090;2023-10-08T12:53:24;1.50;;;0.80;;
76599;SDS011;65489;52.048;6.090;2023-10-08T12:55:59;1.08;;;0.60;;
76599;SDS011;65489;52.048;6.090;2023-10-08T12:58:31;2.40;;;0.70;;
76599;SDS011;65489;52.048;6.090;2023-10-08T13:01:03;1.52;;;0.60;;
76599;SDS011;65489;52.048;6.090;2023-10-08T13:03:29;1.83;;;0.60;;
76599;SDS011;65489;52.048;6.090;2023-10-08T13:05:58;1.80;;;0.80;;
76599;SDS011;65489;52.048;6.090;2023-10-08T13:08:30;1.02;;;0.43;;
76599;SDS011;65489;52.048;6.090;2023-10-08T13:10:56;0.85;;;0.50;;
76599;SDS011;65489;52.048;6.090;2023-10-08T13:13:28;1.25;;;0.57;;
76599;SDS011;65489;52.048;6.090;2023-10-08T13:15:54;1.00;;;0.60;;
76599;SDS011;65489;52.048;6.090;2023-10-08T13:18:24;2.38;;;0.50;;
76599;SDS011;65489;52.048;6.090;2023-10-08T13:20:53;1.08;;;0.60;;
76599;SDS011;65489;52.048;6.090;2023-10-08T13:23:19;1.60;;;0.60;;
76599;SDS011;65489;52.048;6.090;2023-10-08T13:25:51;0.82;;;0.50;;
76599;SDS011;65489;52.048;6.090;2023-10-08T13:28:23;0.98;;;0.47;;
76599;SDS011;65489;52.048;6.090;2023-10-08T13:30:52;2.92;;;0.80;;
76599;SDS011;65489;52.048;6.090;2023-10-08T13:33:18;1.05;;;0.57;;
76599;SDS011;65489;52.048;6.090;2023-10-08T13:35:45;1.35;;;0.70;;
76599;SDS011;65489;52.048;6.090;2023-10-08T13:38:10;0.95;;;0.60;;
76599;SDS011;65489;52.048;6.090;2023-10-08T13:40:38;1.30;;;0.60;;
76599;SDS011;65489;52.048;6.090;2023-10-08T13:43:08;1.00;;;0.60;;
76599;SDS011;65489;52.048;6.090;2023-10-08T13:45:37;5.97;;;0.60;;
76599;SDS011;65489;52.048;6.090;2023-10-08T13:48:04;0.60;;;0.50;;
76599;SDS011;65489;52.048;6.090;2023-10-08T13:50:30;0.98;;;0.40;;
76599;SDS011;65489;52.048;6.090;2023-10-08T13:52:56;0.40;;;0.30;;
76599;SDS011;65489;52.048;6.090;2023-10-08T13:55:23;0.80;;;0.50;;
76599;SDS011;65489;52.048;6.090;2023-10-08T13:57:50;0.95;;;0.50;;
76599;SDS011;65489;52.048;6.090;2023-10-08T14:00:16;1.27;;;0.40;;
76599;SDS011;65489;52.048;6.090;2023-10-08T14:02:51;0.40;;;0.30;;
76599;SDS011;65489;52.048;6.090;2023-10-08T14:05:19;0.75;;;0.45;;
76599;SDS011;65489;52.048;6.090;2023-10-08T14:07:49;0.60;;;0.50;;
76599;SDS011;65489;52.048;6.090;2023-10-08T14:10:16;0.57;;;0.40;;
76599;SDS011;65489;52.048;6.090;2023-10-08T14:12:46;0.63;;;0.40;;
76599;SDS011;65489;52.048;6.090;2023-10-08T14:15:18;0.63;;;0.40;;
76599;SDS011;65489;52.048;6.090;2023-10-08T14:17:46;0.85;;;0.40;;
76599;SDS011;65489;52.048;6.090;2023-10-08T14:20:16;0.75;;;0.40;;
76599;SDS011;65489;52.048;6.090;2023-10-08T14:22:47;1.05;;;0.52;;
76599;SDS011;65489;52.048;6.090;2023-10-08T14:25:25;0.95;;;0.45;;
76599;SDS011;65489;52.048;6.090;2023-10-08T14:27:53;0.80;;;0.40;;
76599;SDS011;65489;52.048;6.090;2023-10-08T14:33:07;0.73;;;0.30;;
76599;SDS011;65489;52.048;6.090;2023-10-08T14:35:38;0.57;;;0.40;;
76599;SDS011;65489;52.048;6.090;2023-10-08T14:38:22;1.40;;;0.40;;
76599;SDS011;65489;52.048;6.090;2023-10-08T14:41:06;0.77;;;0.47;;
76599;SDS011;65489;52.048;6.090;2023-10-08T14:43:50;0.98;;;0.45;;
76599;SDS011;65489;52.048;6.090;2023-10-08T14:46:16;0.55;;;0.45;;
76599;SDS011;65489;52.048;6.090;2023-10-08T14:48:43;0.50;;;0.40;;
76599;SDS011;65489;52.048;6.090;2023-10-08T14:51:09;0.70;;;0.40;;
76599;SDS011;65489;52.048;6.090;2023-10-08T14:53:41;0.47;;;0.28;;
76599;SDS011;65489;52.048;6.090;2023-10-08T14:56:07;0.47;;;0.32;;
76599;SDS011;65489;52.048;6.090;2023-10-08T14:58:33;0.82;;;0.43;;
76599;SDS011;65489;52.048;6.090;2023-10-08T15:00:58;0.95;;;0.43;;
76599;SDS011;65489;52.048;6.090;2023-10-08T15:03:24;1.42;;;0.40;;
76599;SDS011;65489;52.048;6.090;2023-10-08T15:05:52;1.85;;;0.60;;
76599;SDS011;65489;52.048;6.090;2023-10-08T15:08:18;1.95;;;0.50;;
76599;SDS011;65489;52.048;6.090;2023-10-08T15:10:43;0.98;;;0.50;;
76599;SDS011;65489;52.048;6.090;2023-10-08T15:13:11;0.40;;;0.28;;
76599;SDS011;65489;52.048;6.090;2023-10-08T15:15:36;1.45;;;0.50;;
76599;SDS011;65489;52.048;6.090;2023-10-08T15:18:05;9.73;;;2.17;;
76599;SDS011;65489;52.048;6.090;2023-10-08T15:20:31;4.00;;;0.80;;
76599;SDS011;65489;52.048;6.090;2023-10-08T15:22:58;1.67;;;0.70;;
76599;SDS011;65489;52.048;6.090;2023-10-08T15:25:24;2.45;;;0.60;;
76599;SDS011;65489;52.048;6.090;2023-10-08T15:27:50;3.20;;;0.70;;
76599;SDS011;65489;52.048;6.090;2023-10-08T15:30:19;4.97;;;0.77;;
76599;SDS011;65489;52.048;6.090;2023-10-08T15:32:45;4.28;;;0.70;;
76599;SDS011;65489;52.048;6.090;2023-10-08T15:35:13;4.32;;;1.00;;
76599;SDS011;65489;52.048;6.090;2023-10-08T15:37:41;1.55;;;0.63;;
76599;SDS011;65489;52.048;6.090;2023-10-08T15:40:07;2.78;;;0.75;;
76599;SDS011;65489;52.048;6.090;2023-10-08T15:42:33;1.15;;;0.50;;
76599;SDS011;65489;52.048;6.090;2023-10-08T15:45:03;1.88;;;0.65;;